sensor_id;sensor_type;location;lat;lon;timestamp;temperature;humidity
31661;DHT22;18267;52.234;7.444;2024-03-06T00:01:43;8.10;99.90
31661;DHT22;18267;52.234;7.444;2024-03-06T00:04:09;8.10;99.90
31661;DHT22;18267;52.234;7.444;2024-03-06T00:06:34;8.10;99.90
31661;DHT22;18267;52.234;7.444;2024-03-06T00:09:00;8.20;99.90
31661;DHT22;18267;52.234;7.444;2024-03-06T00:11:28;8.20;99.90
31661;DHT22;18267;52.234;7.444;2024-03-06T00:13:54;8.30;99.90
31661;DHT22;18267;52.234;7.444;2024-03-06T00:16:19;8.30;99.90
31661;DHT22;18267;52.234;7.444;2024-03-06T00:18:45;8.20;99.90
31661;DHT22;18267;52.234;7.444;2024-03-06T00:21:11;8.30;99.90
31661;DHT22;18267;52.234;7.444;2024-03-06T00:23:37;8.30;99.90
31661;DHT22;18267;52.234;7.444;2024-03-06T00:26:03;8.30;99.90
31661;DHT22;18267;52.234;7.444;2024-03-06T00:28:29;8.30;99.90
31661;DHT22;18267;52.234;7.444;2024-03-06T00:30:55;8.30;99.90
31661;DHT22;18267;52.234;7.444;2024-03-06T00:33:21;8.40;99.90
31661;DHT22;18267;52.234;7.444;2024-03-06T00:35:46;8.50;99.90
31661;DHT22;18267;52.234;7.444;2024-03-06T00:38:12;8.50;99.90
31661;DHT22;18267;52.234;7.444;2024-03-06T00:40:38;8.50;99.90
31661;DHT22;18267;52.234;7.444;2024-03-06T00:43:04;8.50;99.90
31661;DHT22;18267;52.234;7.444;2024-03-06T00:45:30;8.60;99.90
31661;DHT22;18267;52.234;7.444;2024-03-06T00:47:56;8.60;99.90
31661;DHT22;18267;52.234;7.444;2024-03-06T00:50:21;8.60;99.90
31661;DHT22;18267;52.234;7.444;2024-03-06T00:52:47;8.70;99.90
31661;DHT22;18267;52.234;7.444;2024-03-06T00:55:14;8.70;99.90
31661;DHT22;18267;52.234;7.444;2024-03-06T00:57:39;8.70;99.90
31661;DHT22;18267;52.234;7.444;2024-03-06T01:00:07;8.70;99.90
31661;DHT22;18267;52.234;7.444;2024-03-06T01:02:40;8.70;99.90
31661;DHT22;18267;52.234;7.444;2024-03-06T01:05:06;8.70;99.90
31661;DHT22;18267;52.234;7.444;2024-03-06T01:07:33;8.70;99.90
31661;DHT22;18267;52.234;7.444;2024-03-06T01:09:59;8.60;99.90
31661;DHT22;18267;52.234;7.444;2024-03-06T01:12:25;8.60;99.90
31661;DHT22;18267;52.234;7.444;2024-03-06T01:14:50;8.70;99.90
31661;DHT22;18267;52.234;7.444;2024-03-06T01:17:16;8.70;99.90
31661;DHT22;18267;52.234;7.444;2024-03-06T01:19:41;8.70;99.90
31661;DHT22;18267;52.234;7.444;2024-03-06T01:22:10;8.70;99.90
31661;DHT22;18267;52.234;7.444;2024-03-06T01:24:36;8.70;99.90
31661;DHT22;18267;52.234;7.444;2024-03-06T01:27:02;8.70;99.90
31661;DHT22;18267;52.234;7.444;2024-03-06T01:29:31;8.70;99.90
31661;DHT22;18267;52.234;7.444;2024-03-06T01:31:56;8.70;99.90
31661;DHT22;18267;52.234;7.444;2024-03-06T01:34:22;8.70;99.90
31661;DHT22;18267;52.234;7.444;2024-03-06T01:36:48;8.70;99.90
31661;DHT22;18267;52.234;7.444;2024-03-06T01:39:13;8.70;99.90
31661;DHT22;18267;52.234;7.444;2024-03-06T01:41:46;8.60;99.90
31661;DHT22;18267;52.234;7.444;2024-03-06T01:44:12;8.60;99.90
31661;DHT22;18267;52.234;7.444;2024-03-06T01:46:38;8.70;99.90
31661;DHT22;18267;52.234;7.444;2024-03-06T01:49:04;8.70;99.90
31661;DHT22;18267;52.234;7.444;2024-03-06T01:51:30;8.70;99.90
31661;DHT22;18267;52.234;7.444;2024-03-06T01:53:57;8.60;99.90
31661;DHT22;18267;52.234;7.444;2024-03-06T01:56:23;8.70;99.90
31661;DHT22;18267;52.234;7.444;2024-03-06T01:58:49;8.60;99.90
31661;DHT22;18267;52.234;7.444;2024-03-06T02:01:16;8.60;99.90
31661;DHT22;18267;52.234;7.444;2024-03-06T02:03:42;8.70;99.90
31661;DHT22;18267;52.234;7.444;2024-03-06T02:06:09;8.60;99.90
31661;DHT22;18267;52.234;7.444;2024-03-06T02:08:35;8.60;99.90
31661;DHT22;18267;52.234;7.444;2024-03-06T02:11:01;8.60;99.90
31661;DHT22;18267;52.234;7.444;2024-03-06T02:13:29;8.60;99.90
31661;DHT22;18267;52.234;7.444;2024-03-06T02:15:55;8.50;99.90
31661;DHT22;18267;52.234;7.444;2024-03-06T02:18:21;8.50;99.90
31661;DHT22;18267;52.234;7.444;2024-03-06T02:20:46;8.40;99.90
31661;DHT22;18267;52.234;7.444;2024-03-06T02:23:12;8.40;99.90
31661;DHT22;18267;52.234;7.444;2024-03-06T02:25:40;8.30;99.90
31661;DHT22;18267;52.234;7.444;2024-03-06T02:28:05;8.40;99.90
31661;DHT22;18267;52.234;7.444;2024-03-06T02:30:31;8.30;99.90
31661;DHT22;18267;52.234;7.444;2024-03-06T02:33:04;8.40;99.90
31661;DHT22;18267;52.234;7.444;2024-03-06T02:35:31;8.40;99.90
31661;DHT22;18267;52.234;7.444;2024-03-06T02:38:00;8.40;99.90
31661;DHT22;18267;52.234;7.444;2024-03-06T02:40:26;8.40;99.90
31661;DHT22;18267;52.234;7.444;2024-03-06T02:42:52;8.40;99.90
31661;DHT22;18267;52.234;7.444;2024-03-06T02:45:17;8.30;99.90
31661;DHT22;18267;52.234;7.444;2024-03-06T02:47:44;8.40;99.90
31661;DHT22;18267;52.234;7.444;2024-03-06T02:50:10;8.40;99.90
31661;DHT22;18267;52.234;7.444;2024-03-06T02:52:36;8.50;99.90
31661;DHT22;18267;52.234;7.444;2024-03-06T02:55:01;8.50;99.90
31661;DHT22;18267;52.234;7.444;2024-03-06T02:57:27;8.40;99.90
31661;DHT22;18267;52.234;7.444;2024-03-06T02:59:57;8.40;99.90
31661;DHT22;18267;52.234;7.444;2024-03-06T03:02:22;8.30;99.90
31661;DHT22;18267;52.234;7.444;2024-03-06T03:04:49;8.40;99.90
31661;DHT22;18267;52.234;7.444;2024-03-06T03:07:15;8.40;99.90
31661;DHT22;18267;52.234;7.444;2024-03-06T03:09:40;8.40;99.90
31661;DHT22;18267;52.234;7.444;2024-03-06T03:12:06;8.50;99.90
31661;DHT22;18267;52.234;7.444;2024-03-06T03:14:32;8.50;99.90
31661;DHT22;18267;52.234;7.444;2024-03-06T03:16:59;8.50;99.90
31661;DHT22;18267;52.234;7.444;2024-03-06T03:19:24;8.50;99.90
31661;DHT22;18267;52.234;7.444;2024-03-06T03:21:50;8.50;99.90
31661;DHT22;18267;52.234;7.444;2024-03-06T03:24:15;8.50;99.90
31661;DHT22;18267;52.234;7.444;2024-03-06T03:26:41;8.50;99.90
31661;DHT22;18267;52.234;7.444;2024-03-06T03:29:07;8.50;99.90
31661;DHT22;18267;52.234;7.444;2024-03-06T03:31:33;8.40;99.90
31661;DHT22;18267;52.234;7.444;2024-03-06T03:33:58;8.30;99.90
31661;DHT22;18267;52.234;7.444;2024-03-06T03:36:24;8.30;99.90
31661;DHT22;18267;52.234;7.444;2024-03-06T03:38:50;8.20;99.90
31661;DHT22;18267;52.234;7.444;2024-03-06T03:41:15;8.20;99.90
31661;DHT22;18267;52.234;7.444;2024-03-06T03:43:45;8.20;99.90
31661;DHT22;18267;52.234;7.444;2024-03-06T03:46:10;8.20;99.90
31661;DHT22;18267;52.234;7.444;2024-03-06T03:48:36;8.10;99.90
31661;DHT22;18267;52.234;7.444;2024-03-06T03:51:05;8.10;99.90
31661;DHT22;18267;52.234;7.444;2024-03-06T03:53:33;8.00;99.90
31661;DHT22;18267;52.234;7.444;2024-03-06T03:55:59;8.10;99.90
31661;DHT22;18267;52.234;7.444;2024-03-06T03:58:25;8.10;99.90
31661;DHT22;18267;52.234;7.444;2024-03-06T04:00:50;8.10;99.90
31661;DHT22;18267;52.234;7.444;2024-03-06T04:03:20;8.20;99.90
31661;DHT22;18267;52.234;7.444;2024-03-06T04:05:49;8.30;99.90
31661;DHT22;18267;52.234;7.444;2024-03-06T04:08:15;8.20;99.90
31661;DHT22;18267;52.234;7.444;2024-03-06T04:10:42;8.20;99.90
31661;DHT22;18267;52.234;7.444;2024-03-06T04:13:10;8.30;99.90
31661;DHT22;18267;52.234;7.444;2024-03-06T04:15:36;8.10;99.90
31661;DHT22;18267;52.234;7.444;2024-03-06T04:18:01;8.10;99.90
31661;DHT22;18267;52.234;7.444;2024-03-06T04:20:27;8.00;99.90
31661;DHT22;18267;52.234;7.444;2024-03-06T04:22:53;8.00;99.90
31661;DHT22;18267;52.234;7.444;2024-03-06T04:25:18;8.00;99.90
31661;DHT22;18267;52.234;7.444;2024-03-06T04:27:44;7.90;99.90
31661;DHT22;18267;52.234;7.444;2024-03-06T04:30:10;7.90;99.90
31661;DHT22;18267;52.234;7.444;2024-03-06T04:32:36;7.90;99.90
31661;DHT22;18267;52.234;7.444;2024-03-06T04:35:01;8.00;99.90
31661;DHT22;18267;52.234;7.444;2024-03-06T04:37:27;8.00;99.90
31661;DHT22;18267;52.234;7.444;2024-03-06T04:39:54;7.90;99.90
31661;DHT22;18267;52.234;7.444;2024-03-06T04:42:20;8.00;99.90
31661;DHT22;18267;52.234;7.444;2024-03-06T04:44:45;8.10;99.90
31661;DHT22;18267;52.234;7.444;2024-03-06T04:47:11;8.10;99.90
31661;DHT22;18267;52.234;7.444;2024-03-06T04:49:37;8.00;99.90
31661;DHT22;18267;52.234;7.444;2024-03-06T04:52:02;8.00;99.90
31661;DHT22;18267;52.234;7.444;2024-03-06T04:54:28;7.90;99.90
31661;DHT22;18267;52.234;7.444;2024-03-06T04:56:55;7.90;99.90
31661;DHT22;18267;52.234;7.444;2024-03-06T04:59:20;7.80;99.90
31661;DHT22;18267;52.234;7.444;2024-03-06T05:01:46;7.80;99.90
31661;DHT22;18267;52.234;7.444;2024-03-06T05:04:12;7.80;99.90
31661;DHT22;18267;52.234;7.444;2024-03-06T05:06:37;7.90;99.90
31661;DHT22;18267;52.234;7.444;2024-03-06T05:09:03;7.90;99.90
31661;DHT22;18267;52.234;7.444;2024-03-06T05:11:30;7.90;99.90
31661;DHT22;18267;52.234;7.444;2024-03-06T05:13:57;7.90;99.90
31661;DHT22;18267;52.234;7.444;2024-03-06T05:16:23;8.00;99.90
31661;DHT22;18267;52.234;7.444;2024-03-06T05:18:49;8.00;99.90
31661;DHT22;18267;52.234;7.444;2024-03-06T05:21:15;8.00;99.90
31661;DHT22;18267;52.234;7.444;2024-03-06T05:23:41;8.00;99.90
31661;DHT22;18267;52.234;7.444;2024-03-06T05:26:06;8.00;99.90
31661;DHT22;18267;52.234;7.444;2024-03-06T05:28:32;8.10;99.90
31661;DHT22;18267;52.234;7.444;2024-03-06T05:30:58;8.10;99.90
31661;DHT22;18267;52.234;7.444;2024-03-06T05:33:26;8.10;99.90
31661;DHT22;18267;52.234;7.444;2024-03-06T05:35:53;8.10;99.90
31661;DHT22;18267;52.234;7.444;2024-03-06T05:38:19;8.10;99.90
31661;DHT22;18267;52.234;7.444;2024-03-06T05:40:45;8.10;99.90
31661;DHT22;18267;52.234;7.444;2024-03-06T05:43:10;8.10;99.90
31661;DHT22;18267;52.234;7.444;2024-03-06T05:45:36;8.10;99.90
31661;DHT22;18267;52.234;7.444;2024-03-06T05:48:02;8.10;99.90
31661;DHT22;18267;52.234;7.444;2024-03-06T05:50:29;8.00;99.90
31661;DHT22;18267;52.234;7.444;2024-03-06T05:52:57;8.00;99.90
31661;DHT22;18267;52.234;7.444;2024-03-06T05:55:22;7.90;99.90
31661;DHT22;18267;52.234;7.444;2024-03-06T05:57:48;7.90;99.90
31661;DHT22;18267;52.234;7.444;2024-03-06T06:00:14;8.00;99.90
31661;DHT22;18267;52.234;7.444;2024-03-06T06:02:40;8.00;99.90
31661;DHT22;18267;52.234;7.444;2024-03-06T06:05:06;7.90;99.90
31661;DHT22;18267;52.234;7.444;2024-03-06T06:07:32;8.00;99.90
31661;DHT22;18267;52.234;7.444;2024-03-06T06:09:58;8.00;99.90
31661;DHT22;18267;52.234;7.444;2024-03-06T06:12:23;7.90;99.90
31661;DHT22;18267;52.234;7.444;2024-03-06T06:14:49;7.90;99.90
31661;DHT22;18267;52.234;7.444;2024-03-06T06:17:14;8.00;99.90
31661;DHT22;18267;52.234;7.444;2024-03-06T06:19:42;8.10;99.90
31661;DHT22;18267;52.234;7.444;2024-03-06T06:22:09;8.10;99.90
31661;DHT22;18267;52.234;7.444;2024-03-06T06:24:38;8.20;99.90
31661;DHT22;18267;52.234;7.444;2024-03-06T06:27:04;8.20;99.90
31661;DHT22;18267;52.234;7.444;2024-03-06T06:29:30;8.20;99.90
31661;DHT22;18267;52.234;7.444;2024-03-06T06:31:56;8.20;99.90
31661;DHT22;18267;52.234;7.444;2024-03-06T06:34:22;8.30;99.90
31661;DHT22;18267;52.234;7.444;2024-03-06T06:36:48;8.30;99.90
31661;DHT22;18267;52.234;7.444;2024-03-06T06:39:14;8.40;99.90
31661;DHT22;18267;52.234;7.444;2024-03-06T06:41:39;8.40;99.90
31661;DHT22;18267;52.234;7.444;2024-03-06T06:44:05;8.40;99.90
31661;DHT22;18267;52.234;7.444;2024-03-06T06:46:30;8.40;99.90
31661;DHT22;18267;52.234;7.444;2024-03-06T06:48:56;8.50;99.90
31661;DHT22;18267;52.234;7.444;2024-03-06T06:51:22;8.50;99.90
31661;DHT22;18267;52.234;7.444;2024-03-06T06:53:49;8.50;99.90
31661;DHT22;18267;52.234;7.444;2024-03-06T06:56:14;8.50;99.90
31661;DHT22;18267;52.234;7.444;2024-03-06T06:58:40;8.60;99.90
31661;DHT22;18267;52.234;7.444;2024-03-06T07:01:08;8.50;99.90
31661;DHT22;18267;52.234;7.444;2024-03-06T07:03:33;8.50;99.90
31661;DHT22;18267;52.234;7.444;2024-03-06T07:05:59;8.40;99.90
31661;DHT22;18267;52.234;7.444;2024-03-06T07:08:25;8.50;99.90
31661;DHT22;18267;52.234;7.444;2024-03-06T07:10:50;8.40;99.90
31661;DHT22;18267;52.234;7.444;2024-03-06T07:13:18;8.50;99.90
31661;DHT22;18267;52.234;7.444;2024-03-06T07:15:44;8.40;99.90
31661;DHT22;18267;52.234;7.444;2024-03-06T07:18:09;8.40;99.90
31661;DHT22;18267;52.234;7.444;2024-03-06T07:20:35;8.50;99.90
31661;DHT22;18267;52.234;7.444;2024-03-06T07:23:01;8.40;99.90
31661;DHT22;18267;52.234;7.444;2024-03-06T07:25:26;8.50;99.90
31661;DHT22;18267;52.234;7.444;2024-03-06T07:27:52;8.50;99.90
31661;DHT22;18267;52.234;7.444;2024-03-06T07:30:18;8.50;99.90
31661;DHT22;18267;52.234;7.444;2024-03-06T07:32:43;8.40;99.90
31661;DHT22;18267;52.234;7.444;2024-03-06T07:35:09;8.40;99.90
31661;DHT22;18267;52.234;7.444;2024-03-06T07:37:35;8.40;99.90
31661;DHT22;18267;52.234;7.444;2024-03-06T07:40:01;8.40;99.90
31661;DHT22;18267;52.234;7.444;2024-03-06T07:42:26;8.50;99.90
31661;DHT22;18267;52.234;7.444;2024-03-06T07:44:52;8.40;99.90
31661;DHT22;18267;52.234;7.444;2024-03-06T07:47:18;8.40;99.90
31661;DHT22;18267;52.234;7.444;2024-03-06T07:49:44;8.40;99.90
31661;DHT22;18267;52.234;7.444;2024-03-06T07:52:10;8.40;99.90
31661;DHT22;18267;52.234;7.444;2024-03-06T07:54:35;8.40;99.90
31661;DHT22;18267;52.234;7.444;2024-03-06T07:57:01;8.40;99.90
31661;DHT22;18267;52.234;7.444;2024-03-06T07:59:27;8.50;99.90
31661;DHT22;18267;52.234;7.444;2024-03-06T08:01:52;8.50;99.90
31661;DHT22;18267;52.234;7.444;2024-03-06T08:04:18;8.50;99.90
31661;DHT22;18267;52.234;7.444;2024-03-06T08:06:44;8.40;99.90
31661;DHT22;18267;52.234;7.444;2024-03-06T08:09:09;8.40;99.90
31661;DHT22;18267;52.234;7.444;2024-03-06T08:11:35;8.40;99.90
31661;DHT22;18267;52.234;7.444;2024-03-06T08:14:01;8.30;99.90
31661;DHT22;18267;52.234;7.444;2024-03-06T08:16:27;8.20;99.90
31661;DHT22;18267;52.234;7.444;2024-03-06T08:18:54;8.10;99.90
31661;DHT22;18267;52.234;7.444;2024-03-06T08:21:20;8.10;99.90
31661;DHT22;18267;52.234;7.444;2024-03-06T08:23:45;8.00;99.90
31661;DHT22;18267;52.234;7.444;2024-03-06T08:26:13;7.90;99.90
31661;DHT22;18267;52.234;7.444;2024-03-06T08:28:38;8.00;99.90
31661;DHT22;18267;52.234;7.444;2024-03-06T08:31:04;8.00;99.90
31661;DHT22;18267;52.234;7.444;2024-03-06T08:33:29;8.20;99.90
31661;DHT22;18267;52.234;7.444;2024-03-06T08:35:55;8.20;99.90
31661;DHT22;18267;52.234;7.444;2024-03-06T08:38:20;8.20;99.90
31661;DHT22;18267;52.234;7.444;2024-03-06T08:40:46;8.30;99.90
31661;DHT22;18267;52.234;7.444;2024-03-06T08:43:12;8.40;99.90
31661;DHT22;18267;52.234;7.444;2024-03-06T08:45:41;8.40;99.90
31661;DHT22;18267;52.234;7.444;2024-03-06T08:48:08;8.50;99.90
31661;DHT22;18267;52.234;7.444;2024-03-06T08:50:33;8.30;99.90
31661;DHT22;18267;52.234;7.444;2024-03-06T08:52:59;8.30;99.90
31661;DHT22;18267;52.234;7.444;2024-03-06T08:55:24;8.30;99.90
31661;DHT22;18267;52.234;7.444;2024-03-06T08:57:50;8.30;99.90
31661;DHT22;18267;52.234;7.444;2024-03-06T09:00:18;8.30;99.90
31661;DHT22;18267;52.234;7.444;2024-03-06T09:02:43;8.50;99.90
31661;DHT22;18267;52.234;7.444;2024-03-06T09:05:10;8.70;99.90
31661;DHT22;18267;52.234;7.444;2024-03-06T09:07:38;8.80;99.90
31661;DHT22;18267;52.234;7.444;2024-03-06T09:10:06;8.90;99.90
31661;DHT22;18267;52.234;7.444;2024-03-06T09:12:32;8.90;99.90
31661;DHT22;18267;52.234;7.444;2024-03-06T09:14:57;9.00;99.90
31661;DHT22;18267;52.234;7.444;2024-03-06T09:17:25;9.10;99.90
31661;DHT22;18267;52.234;7.444;2024-03-06T09:19:51;9.10;99.90
31661;DHT22;18267;52.234;7.444;2024-03-06T09:22:17;9.10;99.90
31661;DHT22;18267;52.234;7.444;2024-03-06T09:24:43;8.90;99.90
31661;DHT22;18267;52.234;7.444;2024-03-06T09:27:08;8.80;99.90
31661;DHT22;18267;52.234;7.444;2024-03-06T09:29:34;8.80;99.90
31661;DHT22;18267;52.234;7.444;2024-03-06T09:31:59;8.70;99.90
31661;DHT22;18267;52.234;7.444;2024-03-06T09:34:25;8.80;99.90
31661;DHT22;18267;52.234;7.444;2024-03-06T09:36:51;8.80;99.90
31661;DHT22;18267;52.234;7.444;2024-03-06T09:39:17;8.80;99.90
31661;DHT22;18267;52.234;7.444;2024-03-06T09:41:45;8.80;99.90
31661;DHT22;18267;52.234;7.444;2024-03-06T09:44:12;8.70;99.90
31661;DHT22;18267;52.234;7.444;2024-03-06T09:46:48;8.90;99.90
31661;DHT22;18267;52.234;7.444;2024-03-06T09:49:17;8.80;99.90
31661;DHT22;18267;52.234;7.444;2024-03-06T09:51:44;8.80;99.90
31661;DHT22;18267;52.234;7.444;2024-03-06T09:54:16;8.90;99.90
31661;DHT22;18267;52.234;7.444;2024-03-06T09:56:43;8.70;99.90
31661;DHT22;18267;52.234;7.444;2024-03-06T09:59:09;8.80;99.90
31661;DHT22;18267;52.234;7.444;2024-03-06T10:01:39;9.00;99.90
31661;DHT22;18267;52.234;7.444;2024-03-06T10:04:35;9.20;99.90
31661;DHT22;18267;52.234;7.444;2024-03-06T10:07:02;9.40;99.90
31661;DHT22;18267;52.234;7.444;2024-03-06T10:09:28;9.50;99.90
31661;DHT22;18267;52.234;7.444;2024-03-06T10:11:55;9.60;99.90
31661;DHT22;18267;52.234;7.444;2024-03-06T10:14:22;9.70;99.90
31661;DHT22;18267;52.234;7.444;2024-03-06T10:16:58;9.80;99.90
31661;DHT22;18267;52.234;7.444;2024-03-06T10:19:25;9.70;99.90
31661;DHT22;18267;52.234;7.444;2024-03-06T10:21:53;9.60;99.90
31661;DHT22;18267;52.234;7.444;2024-03-06T10:24:27;9.60;99.90
31661;DHT22;18267;52.234;7.444;2024-03-06T10:26:55;9.60;99.90
31661;DHT22;18267;52.234;7.444;2024-03-06T10:29:22;9.40;99.90
31661;DHT22;18267;52.234;7.444;2024-03-06T10:31:53;9.30;99.90
31661;DHT22;18267;52.234;7.444;2024-03-06T10:34:23;9.30;99.90
31661;DHT22;18267;52.234;7.444;2024-03-06T10:37:02;9.30;99.90
31661;DHT22;18267;52.234;7.444;2024-03-06T10:39:35;9.40;99.90
31661;DHT22;18267;52.234;7.444;2024-03-06T10:42:06;9.50;99.90
31661;DHT22;18267;52.234;7.444;2024-03-06T10:44:34;9.50;99.90
31661;DHT22;18267;52.234;7.444;2024-03-06T10:47:05;9.40;99.90
31661;DHT22;18267;52.234;7.444;2024-03-06T10:49:31;9.30;99.90
31661;DHT22;18267;52.234;7.444;2024-03-06T10:51:59;9.40;99.90
31661;DHT22;18267;52.234;7.444;2024-03-06T10:54:29;9.40;99.90
31661;DHT22;18267;52.234;7.444;2024-03-06T10:57:00;9.60;99.90
31661;DHT22;18267;52.234;7.444;2024-03-06T10:59:27;9.60;99.90
31661;DHT22;18267;52.234;7.444;2024-03-06T11:01:54;9.50;99.90
31661;DHT22;18267;52.234;7.444;2024-03-06T11:04:20;9.50;99.90
31661;DHT22;18267;52.234;7.444;2024-03-06T11:06:46;9.60;99.90
31661;DHT22;18267;52.234;7.444;2024-03-06T11:09:13;9.50;99.90
31661;DHT22;18267;52.234;7.444;2024-03-06T11:11:51;9.50;99.90
31661;DHT22;18267;52.234;7.444;2024-03-06T11:14:18;9.70;99.90
31661;DHT22;18267;52.234;7.444;2024-03-06T11:17:07;9.90;99.90
31661;DHT22;18267;52.234;7.444;2024-03-06T11:28:20;10.30;99.90
31661;DHT22;18267;52.234;7.444;2024-03-06T11:33:15;10.60;99.90
31661;DHT22;18267;52.234;7.444;2024-03-06T11:36:45;10.70;99.90
31661;DHT22;18267;52.234;7.444;2024-03-06T11:38:59;10.80;99.90
31661;DHT22;18267;52.234;7.444;2024-03-06T11:41:30;10.70;99.90
31661;DHT22;18267;52.234;7.444;2024-03-06T11:43:56;10.70;99.90
31661;DHT22;18267;52.234;7.444;2024-03-06T11:46:46;10.60;99.90
31661;DHT22;18267;52.234;7.444;2024-03-06T11:49:16;10.50;99.90
31661;DHT22;18267;52.234;7.444;2024-03-06T11:51:45;10.50;99.90
31661;DHT22;18267;52.234;7.444;2024-03-06T11:54:11;10.60;99.90
31661;DHT22;18267;52.234;7.444;2024-03-06T11:56:39;10.60;99.90
31661;DHT22;18267;52.234;7.444;2024-03-06T11:59:05;10.50;99.90
31661;DHT22;18267;52.234;7.444;2024-03-06T12:01:35;10.70;99.90
31661;DHT22;18267;52.234;7.444;2024-03-06T12:04:02;10.70;99.90
31661;DHT22;18267;52.234;7.444;2024-03-06T12:06:29;10.60;99.90
31661;DHT22;18267;52.234;7.444;2024-03-06T12:08:55;10.60;99.90
31661;DHT22;18267;52.234;7.444;2024-03-06T12:11:20;10.60;99.90
31661;DHT22;18267;52.234;7.444;2024-03-06T12:13:48;10.60;99.90
31661;DHT22;18267;52.234;7.444;2024-03-06T12:16:14;10.50;99.90
31661;DHT22;18267;52.234;7.444;2024-03-06T12:18:41;10.30;99.90
31661;DHT22;18267;52.234;7.444;2024-03-06T12:21:06;10.40;99.90
31661;DHT22;18267;52.234;7.444;2024-03-06T12:23:32;10.30;99.90
31661;DHT22;18267;52.234;7.444;2024-03-06T12:26:08;10.00;99.90
31661;DHT22;18267;52.234;7.444;2024-03-06T12:28:39;9.90;99.90
31661;DHT22;18267;52.234;7.444;2024-03-06T12:31:05;9.90;99.90
31661;DHT22;18267;52.234;7.444;2024-03-06T12:33:31;9.80;99.90
31661;DHT22;18267;52.234;7.444;2024-03-06T12:36:01;9.90;99.90
31661;DHT22;18267;52.234;7.444;2024-03-06T12:38:29;10.30;99.90
31661;DHT22;18267;52.234;7.444;2024-03-06T12:40:55;10.60;99.90
31661;DHT22;18267;52.234;7.444;2024-03-06T12:43:20;10.80;99.90
31661;DHT22;18267;52.234;7.444;2024-03-06T12:45:46;10.90;99.90
31661;DHT22;18267;52.234;7.444;2024-03-06T12:48:11;10.70;99.90
31661;DHT22;18267;52.234;7.444;2024-03-06T12:50:38;10.80;99.90
31661;DHT22;18267;52.234;7.444;2024-03-06T12:53:03;10.50;99.90
31661;DHT22;18267;52.234;7.444;2024-03-06T12:55:32;10.20;99.90
31661;DHT22;18267;52.234;7.444;2024-03-06T12:57:58;10.20;99.90
31661;DHT22;18267;52.234;7.444;2024-03-06T13:00:23;10.20;99.90
31661;DHT22;18267;52.234;7.444;2024-03-06T13:02:49;10.20;99.90
31661;DHT22;18267;52.234;7.444;2024-03-06T13:05:18;10.30;99.90
31661;DHT22;18267;52.234;7.444;2024-03-06T13:07:45;10.40;99.90
31661;DHT22;18267;52.234;7.444;2024-03-06T13:10:11;10.40;99.90
31661;DHT22;18267;52.234;7.444;2024-03-06T13:12:38;10.40;99.90
31661;DHT22;18267;52.234;7.444;2024-03-06T13:15:04;10.30;99.90
31661;DHT22;18267;52.234;7.444;2024-03-06T13:17:32;10.40;99.90
31661;DHT22;18267;52.234;7.444;2024-03-06T13:19:58;10.40;99.90
31661;DHT22;18267;52.234;7.444;2024-03-06T13:22:23;10.50;99.90
31661;DHT22;18267;52.234;7.444;2024-03-06T13:24:49;10.60;99.90
31661;DHT22;18267;52.234;7.444;2024-03-06T13:27:15;10.50;99.90
31661;DHT22;18267;52.234;7.444;2024-03-06T13:29:40;10.20;99.90
31661;DHT22;18267;52.234;7.444;2024-03-06T13:32:06;10.20;99.90
31661;DHT22;18267;52.234;7.444;2024-03-06T13:34:32;10.10;99.90
31661;DHT22;18267;52.234;7.444;2024-03-06T13:36:58;10.20;99.90
31661;DHT22;18267;52.234;7.444;2024-03-06T13:39:24;10.40;99.90
31661;DHT22;18267;52.234;7.444;2024-03-06T13:41:50;10.40;99.90
31661;DHT22;18267;52.234;7.444;2024-03-06T13:44:18;10.40;99.90
31661;DHT22;18267;52.234;7.444;2024-03-06T13:46:44;10.50;99.90
31661;DHT22;18267;52.234;7.444;2024-03-06T13:49:43;10.60;99.90
31661;DHT22;18267;52.234;7.444;2024-03-06T13:52:09;10.60;99.90
31661;DHT22;18267;52.234;7.444;2024-03-06T13:54:39;10.90;99.90
31661;DHT22;18267;52.234;7.444;2024-03-06T13:57:06;11.00;99.90
31661;DHT22;18267;52.234;7.444;2024-03-06T13:59:32;11.00;99.90
31661;DHT22;18267;52.234;7.444;2024-03-06T14:01:58;10.90;99.90
31661;DHT22;18267;52.234;7.444;2024-03-06T14:04:26;10.90;99.90
31661;DHT22;18267;52.234;7.444;2024-03-06T14:06:53;10.80;99.90
31661;DHT22;18267;52.234;7.444;2024-03-06T14:09:18;10.80;99.90
31661;DHT22;18267;52.234;7.444;2024-03-06T14:11:44;10.80;99.90
31661;DHT22;18267;52.234;7.444;2024-03-06T14:14:10;10.70;99.90
31661;DHT22;18267;52.234;7.444;2024-03-06T14:16:37;10.70;99.90
31661;DHT22;18267;52.234;7.444;2024-03-06T14:19:02;10.70;99.90
31661;DHT22;18267;52.234;7.444;2024-03-06T14:21:30;10.80;99.90
31661;DHT22;18267;52.234;7.444;2024-03-06T14:23:58;10.70;99.90
31661;DHT22;18267;52.234;7.444;2024-03-06T14:26:23;10.50;99.90
31661;DHT22;18267;52.234;7.444;2024-03-06T14:28:49;10.40;99.90
31661;DHT22;18267;52.234;7.444;2024-03-06T14:31:14;10.40;99.90
31661;DHT22;18267;52.234;7.444;2024-03-06T14:33:40;10.60;99.90
31661;DHT22;18267;52.234;7.444;2024-03-06T14:36:06;10.50;99.90
31661;DHT22;18267;52.234;7.444;2024-03-06T14:38:32;10.50;99.90
31661;DHT22;18267;52.234;7.444;2024-03-06T14:40:58;10.40;99.90
31661;DHT22;18267;52.234;7.444;2024-03-06T14:43:24;10.30;99.90
31661;DHT22;18267;52.234;7.444;2024-03-06T14:45:50;10.30;99.90
31661;DHT22;18267;52.234;7.444;2024-03-06T14:48:16;10.30;99.90
31661;DHT22;18267;52.234;7.444;2024-03-06T14:50:43;10.30;99.90
31661;DHT22;18267;52.234;7.444;2024-03-06T14:53:09;10.30;99.90
31661;DHT22;18267;52.234;7.444;2024-03-06T14:55:34;10.30;99.90
31661;DHT22;18267;52.234;7.444;2024-03-06T14:58:00;10.10;99.90
31661;DHT22;18267;52.234;7.444;2024-03-06T15:00:26;10.00;99.90
31661;DHT22;18267;52.234;7.444;2024-03-06T15:02:51;9.90;99.90
31661;DHT22;18267;52.234;7.444;2024-03-06T15:05:17;10.00;99.90
31661;DHT22;18267;52.234;7.444;2024-03-06T15:07:42;9.90;99.90
31661;DHT22;18267;52.234;7.444;2024-03-06T15:10:08;9.90;99.90
31661;DHT22;18267;52.234;7.444;2024-03-06T15:12:34;10.00;99.90
31661;DHT22;18267;52.234;7.444;2024-03-06T15:15:03;10.00;99.90
31661;DHT22;18267;52.234;7.444;2024-03-06T15:17:31;10.10;99.90
31661;DHT22;18267;52.234;7.444;2024-03-06T15:19:58;9.90;99.90
31661;DHT22;18267;52.234;7.444;2024-03-06T15:22:23;9.90;99.90
31661;DHT22;18267;52.234;7.444;2024-03-06T15:24:49;9.90;99.90
31661;DHT22;18267;52.234;7.444;2024-03-06T15:27:16;9.90;99.90
31661;DHT22;18267;52.234;7.444;2024-03-06T15:29:42;9.90;99.90
31661;DHT22;18267;52.234;7.444;2024-03-06T15:32:09;9.80;99.90
31661;DHT22;18267;52.234;7.444;2024-03-06T15:34:35;9.90;99.90
31661;DHT22;18267;52.234;7.444;2024-03-06T15:37:01;10.00;99.90
31661;DHT22;18267;52.234;7.444;2024-03-06T15:39:26;9.90;99.90
31661;DHT22;18267;52.234;7.444;2024-03-06T15:41:52;9.90;99.90
31661;DHT22;18267;52.234;7.444;2024-03-06T15:44:18;9.70;99.90
31661;DHT22;18267;52.234;7.444;2024-03-06T15:46:43;9.70;99.90
31661;DHT22;18267;52.234;7.444;2024-03-06T15:49:22;9.70;99.90
31661;DHT22;18267;52.234;7.444;2024-03-06T15:51:51;9.60;99.90